sensor_id;sensor_type;location;lat;lon;timestamp;temperature;humidity
63960;DHT22;50136;51.374;0.096;2024-02-23T00:07:16;4.10;99.90
63960;DHT22;50136;51.374;0.096;2024-02-23T00:17:19;4.10;99.90
63960;DHT22;50136;51.374;0.096;2024-02-23T00:27:21;4.10;99.90
63960;DHT22;50136;51.374;0.096;2024-02-23T00:37:24;4.20;99.90
63960;DHT22;50136;51.374;0.096;2024-02-23T00:47:27;4.10;99.90
63960;DHT22;50136;51.374;0.096;2024-02-23T00:57:30;4.20;99.90
63960;DHT22;50136;51.374;0.096;2024-02-23T01:07:32;4.10;99.90
63960;DHT22;50136;51.374;0.096;2024-02-23T01:17:36;4.10;99.90
63960;DHT22;50136;51.374;0.096;2024-02-23T01:27:38;4.20;99.90
63960;DHT22;50136;51.374;0.096;2024-02-23T01:37:41;4.10;99.90
63960;DHT22;50136;51.374;0.096;2024-02-23T01:47:43;4.00;99.90
63960;DHT22;50136;51.374;0.096;2024-02-23T01:57:47;4.00;99.90
63960;DHT22;50136;51.374;0.096;2024-02-23T02:07:53;4.10;99.90
63960;DHT22;50136;51.374;0.096;2024-02-23T02:17:57;4.20;99.90
63960;DHT22;50136;51.374;0.096;2024-02-23T02:27:59;4.20;99.90
63960;DHT22;50136;51.374;0.096;2024-02-23T02:38:03;4.20;99.90
63960;DHT22;50136;51.374;0.096;2024-02-23T02:48:05;4.10;99.90
63960;DHT22;50136;51.374;0.096;2024-02-23T02:58:09;4.10;99.90
63960;DHT22;50136;51.374;0.096;2024-02-23T03:08:11;4.20;99.90
63960;DHT22;50136;51.374;0.096;2024-02-23T03:18:14;4.50;99.90
63960;DHT22;50136;51.374;0.096;2024-02-23T03:28:17;4.70;99.90
63960;DHT22;50136;51.374;0.096;2024-02-23T03:38:20;4.80;99.90
63960;DHT22;50136;51.374;0.096;2024-02-23T03:48:22;4.80;99.90
63960;DHT22;50136;51.374;0.096;2024-02-23T03:58:25;4.60;99.90
63960;DHT22;50136;51.374;0.096;2024-02-23T04:08:27;4.60;99.90
63960;DHT22;50136;51.374;0.096;2024-02-23T04:18:31;4.60;99.90
63960;DHT22;50136;51.374;0.096;2024-02-23T04:28:33;4.60;99.90
63960;DHT22;50136;51.374;0.096;2024-02-23T04:38:36;4.70;99.90
63960;DHT22;50136;51.374;0.096;2024-02-23T04:48:38;4.90;99.90
63960;DHT22;50136;51.374;0.096;2024-02-23T04:58:43;5.10;99.90
63960;DHT22;50136;51.374;0.096;2024-02-23T05:08:45;5.30;99.90
63960;DHT22;50136;51.374;0.096;2024-02-23T05:18:48;5.40;99.90
63960;DHT22;50136;51.374;0.096;2024-02-23T05:28:50;5.50;99.90
63960;DHT22;50136;51.374;0.096;2024-02-23T05:38:54;5.40;99.90
63960;DHT22;50136;51.374;0.096;2024-02-23T05:48:57;5.40;99.90
63960;DHT22;50136;51.374;0.096;2024-02-23T05:59:00;5.30;99.90
63960;DHT22;50136;51.374;0.096;2024-02-23T06:09:02;5.10;99.90
63960;DHT22;50136;51.374;0.096;2024-02-23T06:19:06;5.00;99.90
63960;DHT22;50136;51.374;0.096;2024-02-23T06:29:08;4.90;99.90
63960;DHT22;50136;51.374;0.096;2024-02-23T06:39:11;4.80;99.90
63960;DHT22;50136;51.374;0.096;2024-02-23T06:49:13;4.70;99.90
63960;DHT22;50136;51.374;0.096;2024-02-23T06:59:17;4.60;99.90
63960;DHT22;50136;51.374;0.096;2024-02-23T07:09:19;4.50;99.90
63960;DHT22;50136;51.374;0.096;2024-02-23T07:19:22;4.50;99.90
63960;DHT22;50136;51.374;0.096;2024-02-23T07:29:25;4.50;99.90
63960;DHT22;50136;51.374;0.096;2024-02-23T07:39:31;4.60;99.90
63960;DHT22;50136;51.374;0.096;2024-02-23T07:49:33;4.70;99.90
63960;DHT22;50136;51.374;0.096;2024-02-23T07:59:36;4.90;99.90
63960;DHT22;50136;51.374;0.096;2024-02-23T08:09:38;5.10;99.90
63960;DHT22;50136;51.374;0.096;2024-02-23T08:19:46;5.30;99.90
63960;DHT22;50136;51.374;0.096;2024-02-23T08:30:01;5.50;99.90
63960;DHT22;50136;51.374;0.096;2024-02-23T08:40:38;5.70;99.90
63960;DHT22;50136;51.374;0.096;2024-02-23T08:50:48;6.00;99.90
63960;DHT22;50136;51.374;0.096;2024-02-23T09:01:03;6.20;99.90
63960;DHT22;50136;51.374;0.096;2024-02-23T09:11:11;6.60;99.90
63960;DHT22;50136;51.374;0.096;2024-02-23T09:21:43;6.90;99.90
63960;DHT22;50136;51.374;0.096;2024-02-23T09:32:16;8.30;99.90
63960;DHT22;50136;51.374;0.096;2024-02-23T09:42:38;10.00;99.90
63960;DHT22;50136;51.374;0.096;2024-02-23T09:52:55;10.70;99.90
63960;DHT22;50136;51.374;0.096;2024-02-23T10:03:14;12.10;99.90
63960;DHT22;50136;51.374;0.096;2024-02-23T10:13:33;12.30;99.90
63960;DHT22;50136;51.374;0.096;2024-02-23T10:23:44;12.50;99.90
63960;DHT22;50136;51.374;0.096;2024-02-23T10:44:19;13.30;99.90
63960;DHT22;50136;51.374;0.096;2024-02-23T10:54:31;14.50;99.90
63960;DHT22;50136;51.374;0.096;2024-02-23T11:04:43;14.00;99.90
63960;DHT22;50136;51.374;0.096;2024-02-23T11:14:56;12.20;99.90
63960;DHT22;50136;51.374;0.096;2024-02-23T11:25:04;12.70;99.90
63960;DHT22;50136;51.374;0.096;2024-02-23T11:35:17;12.50;99.90
63960;DHT22;50136;51.374;0.096;2024-02-23T11:45:31;11.70;99.90
63960;DHT22;50136;51.374;0.096;2024-02-23T11:55:47;11.10;99.90
63960;DHT22;50136;51.374;0.096;2024-02-23T12:05:56;11.30;99.90
63960;DHT22;50136;51.374;0.096;2024-02-23T12:16:06;10.80;99.90
63960;DHT22;50136;51.374;0.096;2024-02-23T12:26:16;10.80;99.90
63960;DHT22;50136;51.374;0.096;2024-02-23T12:36:18;10.40;99.90
63960;DHT22;50136;51.374;0.096;2024-02-23T12:46:22;10.20;99.90
63960;DHT22;50136;51.374;0.096;2024-02-23T12:56:24;10.20;99.90
63960;DHT22;50136;51.374;0.096;2024-02-23T13:06:27;10.20;99.90
63960;DHT22;50136;51.374;0.096;2024-02-23T13:16:29;10.20;99.90
63960;DHT22;50136;51.374;0.096;2024-02-23T13:26:33;10.30;99.90
63960;DHT22;50136;51.374;0.096;2024-02-23T13:36:35;10.40;99.90
63960;DHT22;50136;51.374;0.096;2024-02-23T13:46:39;10.10;99.90
63960;DHT22;50136;51.374;0.096;2024-02-23T13:56:41;10.40;99.90
63960;DHT22;50136;51.374;0.096;2024-02-23T14:06:44;10.50;99.90
63960;DHT22;50136;51.374;0.096;2024-02-23T14:16:46;10.50;99.90
63960;DHT22;50136;51.374;0.096;2024-02-23T14:26:49;10.50;99.90
63960;DHT22;50136;51.374;0.096;2024-02-23T14:36:51;10.20;99.90
63960;DHT22;50136;51.374;0.096;2024-02-23T14:46:55;9.90;99.90
63960;DHT22;50136;51.374;0.096;2024-02-23T14:56:57;9.60;99.90
63960;DHT22;50136;51.374;0.096;2024-02-23T15:07:00;9.60;99.90
63960;DHT22;50136;51.374;0.096;2024-02-23T15:17:02;9.50;99.90
63960;DHT22;50136;51.374;0.096;2024-02-23T15:27:09;9.40;99.90
63960;DHT22;50136;51.374;0.096;2024-02-23T15:37:11;8.90;99.90
63960;DHT22;50136;51.374;0.096;2024-02-23T15:57:38;7.90;99.90
63960;DHT22;50136;51.374;0.096;2024-02-23T16:07:43;7.70;99.90
63960;DHT22;50136;51.374;0.096;2024-02-23T16:17:53;7.70;99.90
63960;DHT22;50136;51.374;0.096;2024-02-23T16:27:58;7.50;99.90
63960;DHT22;50136;51.374;0.096;2024-02-23T16:38:06;7.80;99.90
63960;DHT22;50136;51.374;0.096;2024-02-23T16:48:10;8.20;99.90
63960;DHT22;50136;51.374;0.096;2024-02-23T16:58:12;8.20;99.90
63960;DHT22;50136;51.374;0.096;2024-02-23T17:08:16;7.80;99.90
63960;DHT22;50136;51.374;0.096;2024-02-23T17:18:19;7.40;99.90
63960;DHT22;50136;51.374;0.096;2024-02-23T17:28:22;7.00;99.90
63960;DHT22;50136;51.374;0.096;2024-02-23T17:38:24;6.20;99.90
63960;DHT22;50136;51.374;0.096;2024-02-23T17:48:28;5.90;99.90
63960;DHT22;50136;51.374;0.096;2024-02-23T17:58:30;6.00;99.90
63960;DHT22;50136;51.374;0.096;2024-02-23T18:08:33;6.00;99.90
63960;DHT22;50136;51.374;0.096;2024-02-23T18:18:35;5.80;99.90
63960;DHT22;50136;51.374;0.096;2024-02-23T18:28:39;5.60;99.90
63960;DHT22;50136;51.374;0.096;2024-02-23T18:38:41;5.50;99.90
63960;DHT22;50136;51.374;0.096;2024-02-23T18:48:44;5.30;99.90
63960;DHT22;50136;51.374;0.096;2024-02-23T18:58:46;5.10;99.90
63960;DHT22;50136;51.374;0.096;2024-02-23T19:08:50;4.90;99.90
63960;DHT22;50136;51.374;0.096;2024-02-23T19:18:54;4.80;99.90
63960;DHT22;50136;51.374;0.096;2024-02-23T19:28:58;4.80;99.90
63960;DHT22;50136;51.374;0.096;2024-02-23T19:39:00;4.70;99.90
63960;DHT22;50136;51.374;0.096;2024-02-23T19:49:03;4.60;99.90
63960;DHT22;50136;51.374;0.096;2024-02-23T19:59:05;4.70;99.90
63960;DHT22;50136;51.374;0.096;2024-02-23T20:09:09;4.70;99.90
63960;DHT22;50136;51.374;0.096;2024-02-23T20:19:11;5.00;99.90
63960;DHT22;50136;51.374;0.096;2024-02-23T20:29:14;5.10;99.90
63960;DHT22;50136;51.374;0.096;2024-02-23T20:39:16;5.20;99.90
63960;DHT22;50136;51.374;0.096;2024-02-23T20:49:20;5.00;99.90
63960;DHT22;50136;51.374;0.096;2024-02-23T20:59:22;4.90;99.90
63960;DHT22;50136;51.374;0.096;2024-02-23T21:09:25;5.00;99.90
63960;DHT22;50136;51.374;0.096;2024-02-23T21:19:27;5.00;99.90
63960;DHT22;50136;51.374;0.096;2024-02-23T21:29:31;4.80;99.90
63960;DHT22;50136;51.374;0.096;2024-02-23T21:39:33;4.60;99.90
63960;DHT22;50136;51.374;0.096;2024-02-23T21:49:36;4.50;99.90
63960;DHT22;50136;51.374;0.096;2024-02-23T21:59:39;4.30;99.90
63960;DHT22;50136;51.374;0.096;2024-02-23T22:09:43;4.10;99.90
63960;DHT22;50136;51.374;0.096;2024-02-23T22:31:14;4.00;99.90
63960;DHT22;50136;51.374;0.096;2024-02-23T22:41:16;3.80;99.90
63960;DHT22;50136;51.374;0.096;2024-02-23T22:51:20;3.70;99.90
63960;DHT22;50136;51.374;0.096;2024-02-23T23:01:22;3.80;99.90
63960;DHT22;50136;51.374;0.096;2024-02-23T23:11:26;3.80;99.90
63960;DHT22;50136;51.374;0.096;2024-02-23T23:21:28;3.70;99.90
63960;DHT22;50136;51.374;0.096;2024-02-23T23:31:32;3.50;99.90
63960;DHT22;50136;51.374;0.096;2024-02-23T23:41:33;3.30;99.90
63960;DHT22;50136;51.374;0.096;2024-02-23T23:51:37;3.10;99.90
